sensor_id;sensor_type;location;lat;lon;timestamp;P1;durP1;ratioP1;P2;durP2;ratioP2
69334;SDS011;56477;52.742;15.242;2024-02-15T00:00:11;15.73;;;7.30;;
69334;SDS011;56477;52.742;15.242;2024-02-15T00:02:58;8.83;;;3.50;;
69334;SDS011;56477;52.742;15.242;2024-02-15T00:05:24;9.23;;;4.60;;
69334;SDS011;56477;52.742;15.242;2024-02-15T00:07:50;12.57;;;4.90;;
69334;SDS011;56477;52.742;15.242;2024-02-15T00:10:18;18.48;;;9.15;;
69334;SDS011;56477;52.742;15.242;2024-02-15T00:12:46;17.00;;;8.63;;
69334;SDS011;56477;52.742;15.242;2024-02-15T00:15:13;19.20;;;9.60;;
69334;SDS011;56477;52.742;15.242;2024-02-15T00:17:39;17.35;;;8.95;;
69334;SDS011;56477;52.742;15.242;2024-02-15T00:20:05;17.20;;;9.40;;
69334;SDS011;56477;52.742;15.242;2024-02-15T00:22:37;17.97;;;8.87;;
69334;SDS011;56477;52.742;15.242;2024-02-15T00:25:05;20.95;;;9.65;;
69334;SDS011;56477;52.742;15.242;2024-02-15T00:27:31;7.50;;;3.83;;
69334;SDS011;56477;52.742;15.242;2024-02-15T00:30:00;18.25;;;8.68;;
69334;SDS011;56477;52.742;15.242;2024-02-15T00:32:27;16.77;;;8.43;;
69334;SDS011;56477;52.742;15.242;2024-02-15T00:34:53;18.30;;;9.13;;
69334;SDS011;56477;52.742;15.242;2024-02-15T00:37:19;15.93;;;8.73;;
69334;SDS011;56477;52.742;15.242;2024-02-15T00:39:46;14.40;;;6.45;;
69334;SDS011;56477;52.742;15.242;2024-02-15T00:42:12;20.27;;;9.45;;
69334;SDS011;56477;52.742;15.242;2024-02-15T00:44:39;16.40;;;8.00;;
69334;SDS011;56477;52.742;15.242;2024-02-15T00:47:05;14.20;;;7.33;;
69334;SDS011;56477;52.742;15.242;2024-02-15T00:49:31;17.83;;;9.18;;
69334;SDS011;56477;52.742;15.242;2024-02-15T00:51:57;18.15;;;9.23;;
69334;SDS011;56477;52.742;15.242;2024-02-15T00:54:23;22.50;;;9.90;;
69334;SDS011;56477;52.742;15.242;2024-02-15T00:56:51;12.13;;;5.72;;
69334;SDS011;56477;52.742;15.242;2024-02-15T00:59:16;21.67;;;9.45;;
69334;SDS011;56477;52.742;15.242;2024-02-15T01:01:44;70.90;;;12.30;;
69334;SDS011;56477;52.742;15.242;2024-02-15T01:04:10;13.75;;;6.03;;
69334;SDS011;56477;52.742;15.242;2024-02-15T01:06:36;314.90;;;24.37;;
69334;SDS011;56477;52.742;15.242;2024-02-15T01:09:02;187.65;;;15.98;;
69334;SDS011;56477;52.742;15.242;2024-02-15T01:11:29;53.58;;;7.28;;
69334;SDS011;56477;52.742;15.242;2024-02-15T01:13:57;21.90;;;5.40;;
69334;SDS011;56477;52.742;15.242;2024-02-15T01:16:24;283.75;;;23.92;;
69334;SDS011;56477;52.742;15.242;2024-02-15T01:18:53;384.48;;;26.45;;
69334;SDS011;56477;52.742;15.242;2024-02-15T01:21:19;220.40;;;18.95;;
69334;SDS011;56477;52.742;15.242;2024-02-15T01:23:44;308.23;;;25.20;;
69334;SDS011;56477;52.742;15.242;2024-02-15T01:26:12;39.72;;;5.40;;
69334;SDS011;56477;52.742;15.242;2024-02-15T01:28:40;60.13;;;7.45;;
69334;SDS011;56477;52.742;15.242;2024-02-15T01:31:09;313.10;;;23.95;;
69334;SDS011;56477;52.742;15.242;2024-02-15T01:33:36;329.27;;;26.92;;
69334;SDS011;56477;52.742;15.242;2024-02-15T01:36:03;172.23;;;17.87;;
69334;SDS011;56477;52.742;15.242;2024-02-15T01:38:29;351.30;;;24.05;;
69334;SDS011;56477;52.742;15.242;2024-02-15T01:40:56;228.38;;;19.17;;
69334;SDS011;56477;52.742;15.242;2024-02-15T01:43:22;22.67;;;4.35;;
69334;SDS011;56477;52.742;15.242;2024-02-15T01:45:48;296.85;;;23.98;;
69334;SDS011;56477;52.742;15.242;2024-02-15T01:48:16;129.10;;;14.10;;
69334;SDS011;56477;52.742;15.242;2024-02-15T01:50:42;29.52;;;4.43;;
69334;SDS011;56477;52.742;15.242;2024-02-15T01:53:09;212.00;;;17.85;;
69334;SDS011;56477;52.742;15.242;2024-02-15T01:55:37;428.02;;;32.08;;
69334;SDS011;56477;52.742;15.242;2024-02-15T01:58:05;537.90;;;42.43;;
69334;SDS011;56477;52.742;15.242;2024-02-15T02:00:31;57.90;;;6.63;;
69334;SDS011;56477;52.742;15.242;2024-02-15T02:02:57;186.65;;;19.92;;
69334;SDS011;56477;52.742;15.242;2024-02-15T02:05:28;33.50;;;10.93;;
69334;SDS011;56477;52.742;15.242;2024-02-15T02:07:57;62.60;;;12.47;;
69334;SDS011;56477;52.742;15.242;2024-02-15T02:10:30;50.45;;;8.60;;
69334;SDS011;56477;52.742;15.242;2024-02-15T02:12:59;33.08;;;10.73;;
69334;SDS011;56477;52.742;15.242;2024-02-15T02:15:28;24.20;;;9.70;;
69334;SDS011;56477;52.742;15.242;2024-02-15T02:18:00;119.45;;;16.92;;
69334;SDS011;56477;52.742;15.242;2024-02-15T02:20:26;24.33;;;8.83;;
69334;SDS011;56477;52.742;15.242;2024-02-15T02:22:57;31.08;;;11.18;;
69334;SDS011;56477;52.742;15.242;2024-02-15T02:25:32;38.60;;;12.60;;
69334;SDS011;56477;52.742;15.242;2024-02-15T02:28:00;25.75;;;11.10;;
69334;SDS011;56477;52.742;15.242;2024-02-15T02:30:26;22.92;;;10.25;;
69334;SDS011;56477;52.742;15.242;2024-02-15T02:32:55;24.03;;;10.63;;
69334;SDS011;56477;52.742;15.242;2024-02-15T02:35:22;49.83;;;11.18;;
69334;SDS011;56477;52.742;15.242;2024-02-15T02:37:48;120.28;;;14.98;;
69334;SDS011;56477;52.742;15.242;2024-02-15T02:40:15;25.70;;;9.10;;
69334;SDS011;56477;52.742;15.242;2024-02-15T02:42:50;62.13;;;12.83;;
69334;SDS011;56477;52.742;15.242;2024-02-15T02:45:22;41.30;;;7.90;;
69334;SDS011;56477;52.742;15.242;2024-02-15T02:47:53;134.02;;;15.68;;
69334;SDS011;56477;52.742;15.242;2024-02-15T02:50:22;38.70;;;11.32;;
69334;SDS011;56477;52.742;15.242;2024-02-15T02:52:48;118.97;;;15.70;;
69334;SDS011;56477;52.742;15.242;2024-02-15T02:55:15;21.57;;;7.47;;
69334;SDS011;56477;52.742;15.242;2024-02-15T02:57:41;52.05;;;10.15;;
69334;SDS011;56477;52.742;15.242;2024-02-15T03:00:09;60.25;;;12.32;;
69334;SDS011;56477;52.742;15.242;2024-02-15T03:02:38;111.00;;;14.35;;
69334;SDS011;56477;52.742;15.242;2024-02-15T03:05:05;63.67;;;13.43;;
69334;SDS011;56477;52.742;15.242;2024-02-15T03:07:34;91.27;;;14.80;;
69334;SDS011;56477;52.742;15.242;2024-02-15T03:10:04;48.90;;;13.10;;
69334;SDS011;56477;52.742;15.242;2024-02-15T03:12:34;76.60;;;14.50;;
69334;SDS011;56477;52.742;15.242;2024-02-15T03:15:03;48.78;;;12.13;;
69334;SDS011;56477;52.742;15.242;2024-02-15T03:17:33;26.17;;;10.23;;
69334;SDS011;56477;52.742;15.242;2024-02-15T03:19:59;90.77;;;16.53;;
69334;SDS011;56477;52.742;15.242;2024-02-15T03:22:27;74.25;;;15.35;;
69334;SDS011;56477;52.742;15.242;2024-02-15T03:24:55;66.95;;;14.85;;
69334;SDS011;56477;52.742;15.242;2024-02-15T03:27:20;60.83;;;14.67;;
69334;SDS011;56477;52.742;15.242;2024-02-15T03:29:49;116.80;;;17.83;;
69334;SDS011;56477;52.742;15.242;2024-02-15T03:32:15;68.72;;;15.00;;
69334;SDS011;56477;52.742;15.242;2024-02-15T03:34:42;37.58;;;12.02;;
69334;SDS011;56477;52.742;15.242;2024-02-15T03:37:08;80.00;;;15.45;;
69334;SDS011;56477;52.742;15.242;2024-02-15T03:39:35;27.48;;;12.52;;
69334;SDS011;56477;52.742;15.242;2024-02-15T03:42:01;21.00;;;10.13;;
69334;SDS011;56477;52.742;15.242;2024-02-15T03:44:27;24.65;;;11.35;;
69334;SDS011;56477;52.742;15.242;2024-02-15T03:46:52;26.57;;;12.03;;
69334;SDS011;56477;52.742;15.242;2024-02-15T03:49:19;28.33;;;11.70;;
69334;SDS011;56477;52.742;15.242;2024-02-15T03:51:45;21.15;;;10.65;;
69334;SDS011;56477;52.742;15.242;2024-02-15T03:54:12;28.08;;;11.82;;
69334;SDS011;56477;52.742;15.242;2024-02-15T03:56:47;32.63;;;11.95;;
69334;SDS011;56477;52.742;15.242;2024-02-15T03:59:17;28.50;;;11.50;;
69334;SDS011;56477;52.742;15.242;2024-02-15T04:01:44;28.48;;;11.52;;
69334;SDS011;56477;52.742;15.242;2024-02-15T04:04:12;30.88;;;13.18;;
69334;SDS011;56477;52.742;15.242;2024-02-15T04:06:39;24.25;;;10.23;;
69334;SDS011;56477;52.742;15.242;2024-02-15T04:09:07;32.40;;;13.02;;
69334;SDS011;56477;52.742;15.242;2024-02-15T04:11:32;23.00;;;9.63;;
69334;SDS011;56477;52.742;15.242;2024-02-15T04:13:59;32.45;;;13.68;;
69334;SDS011;56477;52.742;15.242;2024-02-15T04:16:25;28.83;;;12.68;;
69334;SDS011;56477;52.742;15.242;2024-02-15T04:18:51;35.23;;;12.23;;
69334;SDS011;56477;52.742;15.242;2024-02-15T04:21:17;28.25;;;12.93;;
69334;SDS011;56477;52.742;15.242;2024-02-15T04:23:45;25.73;;;10.80;;
69334;SDS011;56477;52.742;15.242;2024-02-15T04:26:11;22.10;;;8.70;;
69334;SDS011;56477;52.742;15.242;2024-02-15T04:28:40;26.93;;;11.87;;
69334;SDS011;56477;52.742;15.242;2024-02-15T04:31:06;18.67;;;8.05;;
69334;SDS011;56477;52.742;15.242;2024-02-15T04:33:38;28.33;;;10.88;;
69334;SDS011;56477;52.742;15.242;2024-02-15T04:36:05;22.02;;;9.35;;
69334;SDS011;56477;52.742;15.242;2024-02-15T04:38:32;23.73;;;11.43;;
69334;SDS011;56477;52.742;15.242;2024-02-15T04:41:01;24.30;;;10.87;;
69334;SDS011;56477;52.742;15.242;2024-02-15T04:43:29;25.77;;;10.80;;
69334;SDS011;56477;52.742;15.242;2024-02-15T04:45:56;28.48;;;11.32;;
69334;SDS011;56477;52.742;15.242;2024-02-15T04:48:22;26.95;;;11.98;;
69334;SDS011;56477;52.742;15.242;2024-02-15T04:50:50;22.27;;;11.37;;
69334;SDS011;56477;52.742;15.242;2024-02-15T04:53:17;22.48;;;11.13;;
69334;SDS011;56477;52.742;15.242;2024-02-15T04:55:43;23.20;;;10.73;;
69334;SDS011;56477;52.742;15.242;2024-02-15T04:58:09;27.17;;;10.77;;
69334;SDS011;56477;52.742;15.242;2024-02-15T05:00:36;24.65;;;11.20;;
69334;SDS011;56477;52.742;15.242;2024-02-15T05:03:03;24.00;;;11.47;;
69334;SDS011;56477;52.742;15.242;2024-02-15T05:05:29;26.23;;;11.27;;
69334;SDS011;56477;52.742;15.242;2024-02-15T05:07:55;14.95;;;5.43;;
69334;SDS011;56477;52.742;15.242;2024-02-15T05:10:21;24.25;;;10.85;;
69334;SDS011;56477;52.742;15.242;2024-02-15T05:12:47;32.33;;;10.27;;
69334;SDS011;56477;52.742;15.242;2024-02-15T05:15:14;22.88;;;9.27;;
69334;SDS011;56477;52.742;15.242;2024-02-15T05:17:42;50.45;;;13.02;;
69334;SDS011;56477;52.742;15.242;2024-02-15T05:20:08;34.88;;;12.45;;
69334;SDS011;56477;52.742;15.242;2024-02-15T05:22:37;124.60;;;17.47;;
69334;SDS011;56477;52.742;15.242;2024-02-15T05:25:04;77.57;;;15.13;;
69334;SDS011;56477;52.742;15.242;2024-02-15T05:27:34;112.63;;;17.35;;
69334;SDS011;56477;52.742;15.242;2024-02-15T05:30:02;37.55;;;11.02;;
69334;SDS011;56477;52.742;15.242;2024-02-15T05:32:35;50.53;;;13.90;;
69334;SDS011;56477;52.742;15.242;2024-02-15T05:35:09;90.20;;;15.60;;
69334;SDS011;56477;52.742;15.242;2024-02-15T05:37:37;75.80;;;15.38;;
69334;SDS011;56477;52.742;15.242;2024-02-15T05:40:04;175.55;;;20.75;;
69334;SDS011;56477;52.742;15.242;2024-02-15T05:42:30;310.27;;;27.40;;
69334;SDS011;56477;52.742;15.242;2024-02-15T05:44:59;66.20;;;13.33;;
69334;SDS011;56477;52.742;15.242;2024-02-15T05:48:02;32.60;;;11.15;;
69334;SDS011;56477;52.742;15.242;2024-02-15T05:50:31;42.92;;;12.43;;
69334;SDS011;56477;52.742;15.242;2024-02-15T05:52:57;34.65;;;12.23;;
69334;SDS011;56477;52.742;15.242;2024-02-15T05:55:24;59.78;;;13.52;;
69334;SDS011;56477;52.742;15.242;2024-02-15T05:57:52;46.97;;;13.03;;
69334;SDS011;56477;52.742;15.242;2024-02-15T06:00:18;33.92;;;12.38;;
69334;SDS011;56477;52.742;15.242;2024-02-15T06:02:45;91.40;;;16.25;;
69334;SDS011;56477;52.742;15.242;2024-02-15T06:05:10;162.98;;;18.30;;
69334;SDS011;56477;52.742;15.242;2024-02-15T06:07:36;185.67;;;19.80;;
69334;SDS011;56477;52.742;15.242;2024-02-15T06:10:02;131.40;;;14.30;;
69334;SDS011;56477;52.742;15.242;2024-02-15T06:12:29;159.93;;;17.90;;
69334;SDS011;56477;52.742;15.242;2024-02-15T06:14:55;38.63;;;8.07;;
69334;SDS011;56477;52.742;15.242;2024-02-15T06:17:21;145.45;;;17.95;;
69334;SDS011;56477;52.742;15.242;2024-02-15T06:19:47;321.25;;;25.45;;
69334;SDS011;56477;52.742;15.242;2024-02-15T06:22:13;299.27;;;24.88;;
69334;SDS011;56477;52.742;15.242;2024-02-15T06:24:40;233.57;;;21.23;;
69334;SDS011;56477;52.742;15.242;2024-02-15T06:27:07;223.15;;;18.92;;
69334;SDS011;56477;52.742;15.242;2024-02-15T06:29:32;289.98;;;25.23;;
69334;SDS011;56477;52.742;15.242;2024-02-15T06:32:17;178.53;;;18.10;;
69334;SDS011;56477;52.742;15.242;2024-02-15T06:35:02;287.67;;;26.63;;
69334;SDS011;56477;52.742;15.242;2024-02-15T06:37:46;304.98;;;24.30;;
69334;SDS011;56477;52.742;15.242;2024-02-15T06:40:31;250.60;;;21.02;;
69334;SDS011;56477;52.742;15.242;2024-02-15T06:42:57;135.10;;;13.90;;
69334;SDS011;56477;52.742;15.242;2024-02-15T06:45:23;247.47;;;19.40;;
69334;SDS011;56477;52.742;15.242;2024-02-15T06:47:49;399.38;;;28.75;;
69334;SDS011;56477;52.742;15.242;2024-02-15T06:50:15;208.82;;;16.20;;
69334;SDS011;56477;52.742;15.242;2024-02-15T06:52:42;407.07;;;32.17;;
69334;SDS011;56477;52.742;15.242;2024-02-15T06:55:09;419.45;;;32.03;;
69334;SDS011;56477;52.742;15.242;2024-02-15T06:57:40;355.92;;;26.52;;
69334;SDS011;56477;52.742;15.242;2024-02-15T07:00:07;327.88;;;25.90;;
69334;SDS011;56477;52.742;15.242;2024-02-15T07:02:35;234.02;;;24.17;;
69334;SDS011;56477;52.742;15.242;2024-02-15T07:05:01;379.20;;;26.60;;
69334;SDS011;56477;52.742;15.242;2024-02-15T07:07:32;152.50;;;14.32;;
69334;SDS011;56477;52.742;15.242;2024-02-15T07:09:58;366.58;;;26.92;;
69334;SDS011;56477;52.742;15.242;2024-02-15T07:12:24;164.80;;;19.60;;
69334;SDS011;56477;52.742;15.242;2024-02-15T07:14:49;403.70;;;32.20;;
69334;SDS011;56477;52.742;15.242;2024-02-15T07:17:16;260.17;;;23.92;;
69334;SDS011;56477;52.742;15.242;2024-02-15T07:19:44;190.30;;;15.32;;
69334;SDS011;56477;52.742;15.242;2024-02-15T07:22:10;123.83;;;10.87;;
69334;SDS011;56477;52.742;15.242;2024-02-15T07:24:37;416.60;;;32.78;;
69334;SDS011;56477;52.742;15.242;2024-02-15T07:27:04;351.75;;;29.23;;
69334;SDS011;56477;52.742;15.242;2024-02-15T07:29:30;348.48;;;26.90;;
69334;SDS011;56477;52.742;15.242;2024-02-15T07:32:01;116.72;;;10.68;;
69334;SDS011;56477;52.742;15.242;2024-02-15T07:34:30;418.77;;;30.00;;
69334;SDS011;56477;52.742;15.242;2024-02-15T07:36:56;461.52;;;33.42;;
69334;SDS011;56477;52.742;15.242;2024-02-15T07:39:25;242.85;;;20.92;;
69334;SDS011;56477;52.742;15.242;2024-02-15T07:41:56;521.22;;;42.03;;
69334;SDS011;56477;52.742;15.242;2024-02-15T07:44:26;322.05;;;25.00;;
69334;SDS011;56477;52.742;15.242;2024-02-15T07:46:55;323.80;;;24.73;;
69334;SDS011;56477;52.742;15.242;2024-02-15T07:49:21;69.07;;;6.68;;
69334;SDS011;56477;52.742;15.242;2024-02-15T07:51:48;429.52;;;29.95;;
69334;SDS011;56477;52.742;15.242;2024-02-15T07:54:18;453.65;;;35.55;;
69334;SDS011;56477;52.742;15.242;2024-02-15T07:56:48;442.23;;;33.10;;
69334;SDS011;56477;52.742;15.242;2024-02-15T07:59:15;247.68;;;23.38;;
69334;SDS011;56477;52.742;15.242;2024-02-15T08:01:42;279.88;;;23.77;;
69334;SDS011;56477;52.742;15.242;2024-02-15T08:04:09;371.13;;;31.67;;
69334;SDS011;56477;52.742;15.242;2024-02-15T08:06:35;272.80;;;20.38;;
69334;SDS011;56477;52.742;15.242;2024-02-15T08:09:02;291.10;;;21.47;;
69334;SDS011;56477;52.742;15.242;2024-02-15T08:11:31;408.77;;;29.35;;
69334;SDS011;56477;52.742;15.242;2024-02-15T08:13:57;197.35;;;21.58;;
69334;SDS011;56477;52.742;15.242;2024-02-15T08:16:25;186.10;;;16.83;;
69334;SDS011;56477;52.742;15.242;2024-02-15T08:18:54;62.53;;;9.75;;
69334;SDS011;56477;52.742;15.242;2024-02-15T08:21:27;185.50;;;19.43;;
69334;SDS011;56477;52.742;15.242;2024-02-15T08:23:54;304.45;;;25.58;;
69334;SDS011;56477;52.742;15.242;2024-02-15T08:26:21;333.38;;;28.88;;
69334;SDS011;56477;52.742;15.242;2024-02-15T08:28:47;231.75;;;22.77;;
69334;SDS011;56477;52.742;15.242;2024-02-15T08:31:13;146.68;;;18.65;;
69334;SDS011;56477;52.742;15.242;2024-02-15T08:33:42;179.47;;;18.23;;
69334;SDS011;56477;52.742;15.242;2024-02-15T08:36:10;47.63;;;7.40;;
69334;SDS011;56477;52.742;15.242;2024-02-15T08:38:36;101.97;;;11.20;;
69334;SDS011;56477;52.742;15.242;2024-02-15T08:41:06;251.73;;;21.48;;
69334;SDS011;56477;52.742;15.242;2024-02-15T08:43:34;77.57;;;10.07;;
69334;SDS011;56477;52.742;15.242;2024-02-15T08:46:00;38.90;;;5.97;;
69334;SDS011;56477;52.742;15.242;2024-02-15T08:48:26;137.35;;;13.30;;
69334;SDS011;56477;52.742;15.242;2024-02-15T08:50:52;74.30;;;12.32;;
69334;SDS011;56477;52.742;15.242;2024-02-15T08:53:18;87.27;;;13.90;;
69334;SDS011;56477;52.742;15.242;2024-02-15T08:55:47;131.95;;;14.82;;
69334;SDS011;56477;52.742;15.242;2024-02-15T08:58:13;291.20;;;24.05;;
69334;SDS011;56477;52.742;15.242;2024-02-15T09:00:39;326.63;;;24.48;;
69334;SDS011;56477;52.742;15.242;2024-02-15T09:03:10;82.60;;;11.40;;
69334;SDS011;56477;52.742;15.242;2024-02-15T09:05:38;67.70;;;12.67;;
69334;SDS011;56477;52.742;15.242;2024-02-15T09:08:04;26.65;;;6.35;;
69334;SDS011;56477;52.742;15.242;2024-02-15T09:10:30;27.55;;;8.52;;
69334;SDS011;56477;52.742;15.242;2024-02-15T09:12:56;29.10;;;10.93;;
69334;SDS011;56477;52.742;15.242;2024-02-15T09:15:22;29.33;;;11.23;;
69334;SDS011;56477;52.742;15.242;2024-02-15T09:17:48;21.67;;;9.45;;
69334;SDS011;56477;52.742;15.242;2024-02-15T09:20:15;18.92;;;8.40;;
69334;SDS011;56477;52.742;15.242;2024-02-15T09:25:14;26.95;;;11.18;;
69334;SDS011;56477;52.742;15.242;2024-02-15T09:27:40;24.70;;;10.50;;
69334;SDS011;56477;52.742;15.242;2024-02-15T09:30:06;17.30;;;6.55;;
69334;SDS011;56477;52.742;15.242;2024-02-15T09:32:38;24.65;;;9.45;;
69334;SDS011;56477;52.742;15.242;2024-02-15T09:35:05;20.65;;;7.35;;
69334;SDS011;56477;52.742;15.242;2024-02-15T09:37:36;25.58;;;10.65;;
69334;SDS011;56477;52.742;15.242;2024-02-15T09:40:08;25.33;;;10.60;;
69334;SDS011;56477;52.742;15.242;2024-02-15T09:42:38;24.95;;;10.05;;
69334;SDS011;56477;52.742;15.242;2024-02-15T09:45:05;31.17;;;12.40;;
69334;SDS011;56477;52.742;15.242;2024-02-15T09:47:36;37.00;;;14.10;;
69334;SDS011;56477;52.742;15.242;2024-02-15T09:50:06;28.52;;;11.52;;
69334;SDS011;56477;52.742;15.242;2024-02-15T09:52:39;32.07;;;12.47;;
69334;SDS011;56477;52.742;15.242;2024-02-15T09:55:07;39.15;;;13.70;;
69334;SDS011;56477;52.742;15.242;2024-02-15T09:57:42;30.42;;;11.15;;
69334;SDS011;56477;52.742;15.242;2024-02-15T10:00:10;30.92;;;12.57;;
69334;SDS011;56477;52.742;15.242;2024-02-15T10:02:40;22.25;;;9.38;;
69334;SDS011;56477;52.742;15.242;2024-02-15T10:05:10;25.57;;;11.00;;
69334;SDS011;56477;52.742;15.242;2024-02-15T10:07:40;31.17;;;12.95;;
69334;SDS011;56477;52.742;15.242;2024-02-15T10:12:44;30.13;;;12.35;;
69334;SDS011;56477;52.742;15.242;2024-02-15T10:15:10;49.70;;;14.13;;
69334;SDS011;56477;52.742;15.242;2024-02-15T10:17:55;33.27;;;13.90;;
69334;SDS011;56477;52.742;15.242;2024-02-15T10:20:22;28.70;;;11.95;;
69334;SDS011;56477;52.742;15.242;2024-02-15T10:25:29;30.20;;;12.20;;
69334;SDS011;56477;52.742;15.242;2024-02-15T10:28:01;15.32;;;6.68;;
69334;SDS011;56477;52.742;15.242;2024-02-15T10:30:35;34.97;;;11.73;;
69334;SDS011;56477;52.742;15.242;2024-02-15T10:33:02;20.98;;;7.82;;
69334;SDS011;56477;52.742;15.242;2024-02-15T10:35:29;28.50;;;11.23;;
69334;SDS011;56477;52.742;15.242;2024-02-15T10:40:36;24.88;;;10.73;;
69334;SDS011;56477;52.742;15.242;2024-02-15T10:43:03;14.77;;;5.87;;
69334;SDS011;56477;52.742;15.242;2024-02-15T10:45:34;32.33;;;11.95;;
69334;SDS011;56477;52.742;15.242;2024-02-15T10:48:02;17.15;;;7.07;;
69334;SDS011;56477;52.742;15.242;2024-02-15T10:50:31;24.65;;;11.52;;
69334;SDS011;56477;52.742;15.242;2024-02-15T10:52:58;19.60;;;9.15;;
69334;SDS011;56477;52.742;15.242;2024-02-15T10:55:35;14.27;;;6.57;;
69334;SDS011;56477;52.742;15.242;2024-02-15T10:58:07;27.02;;;11.65;;
69334;SDS011;56477;52.742;15.242;2024-02-15T11:00:33;30.88;;;12.85;;
69334;SDS011;56477;52.742;15.242;2024-02-15T11:05:33;33.88;;;12.82;;
69334;SDS011;56477;52.742;15.242;2024-02-15T11:08:03;22.20;;;8.73;;
69334;SDS011;56477;52.742;15.242;2024-02-15T11:10:32;16.70;;;7.30;;
69334;SDS011;56477;52.742;15.242;2024-02-15T11:12:59;17.88;;;8.10;;
69334;SDS011;56477;52.742;15.242;2024-02-15T11:18:02;24.48;;;10.45;;
69334;SDS011;56477;52.742;15.242;2024-02-15T11:22:58;25.52;;;10.48;;
69334;SDS011;56477;52.742;15.242;2024-02-15T11:25:31;17.20;;;8.60;;
69334;SDS011;56477;52.742;15.242;2024-02-15T11:30:50;23.55;;;10.82;;
69334;SDS011;56477;52.742;15.242;2024-02-15T11:33:29;30.03;;;13.50;;
69334;SDS011;56477;52.742;15.242;2024-02-15T11:36:11;33.05;;;14.20;;
69334;SDS011;56477;52.742;15.242;2024-02-15T11:38:38;27.35;;;13.15;;
69334;SDS011;56477;52.742;15.242;2024-02-15T11:41:13;31.45;;;14.25;;
69334;SDS011;56477;52.742;15.242;2024-02-15T11:46:15;33.53;;;13.53;;
69334;SDS011;56477;52.742;15.242;2024-02-15T11:48:45;36.53;;;14.05;;
69334;SDS011;56477;52.742;15.242;2024-02-15T11:51:27;35.25;;;14.10;;
69334;SDS011;56477;52.742;15.242;2024-02-15T11:54:01;33.30;;;13.80;;
69334;SDS011;56477;52.742;15.242;2024-02-15T11:59:08;20.07;;;8.97;;
69334;SDS011;56477;52.742;15.242;2024-02-15T12:01:44;27.05;;;12.27;;
69334;SDS011;56477;52.742;15.242;2024-02-15T12:04:32;12.25;;;5.80;;
69334;SDS011;56477;52.742;15.242;2024-02-15T12:07:28;13.82;;;6.55;;
69334;SDS011;56477;52.742;15.242;2024-02-15T12:10:16;29.67;;;12.60;;
69334;SDS011;56477;52.742;15.242;2024-02-15T12:13:01;27.77;;;11.00;;
69334;SDS011;56477;52.742;15.242;2024-02-15T12:15:58;14.27;;;6.40;;
69334;SDS011;56477;52.742;15.242;2024-02-15T12:18:44;18.52;;;8.18;;
69334;SDS011;56477;52.742;15.242;2024-02-15T12:21:14;14.38;;;6.70;;
69334;SDS011;56477;52.742;15.242;2024-02-15T12:23:43;24.52;;;10.75;;
69334;SDS011;56477;52.742;15.242;2024-02-15T12:26:09;17.23;;;7.83;;
69334;SDS011;56477;52.742;15.242;2024-02-15T12:28:35;22.10;;;11.27;;
69334;SDS011;56477;52.742;15.242;2024-02-15T12:31:02;23.33;;;8.93;;
69334;SDS011;56477;52.742;15.242;2024-02-15T12:33:28;29.23;;;13.50;;
69334;SDS011;56477;52.742;15.242;2024-02-15T12:36:06;24.40;;;10.65;;
69334;SDS011;56477;52.742;15.242;2024-02-15T12:38:36;28.70;;;13.87;;
69334;SDS011;56477;52.742;15.242;2024-02-15T12:41:04;24.00;;;10.70;;
69334;SDS011;56477;52.742;15.242;2024-02-15T12:43:43;29.02;;;13.98;;
69334;SDS011;56477;52.742;15.242;2024-02-15T12:46:09;27.23;;;12.82;;
69334;SDS011;56477;52.742;15.242;2024-02-15T12:48:35;31.97;;;14.33;;
69334;SDS011;56477;52.742;15.242;2024-02-15T12:51:12;27.80;;;14.05;;
69334;SDS011;56477;52.742;15.242;2024-02-15T12:53:40;28.63;;;13.38;;
69334;SDS011;56477;52.742;15.242;2024-02-15T12:56:07;33.80;;;14.50;;
69334;SDS011;56477;52.742;15.242;2024-02-15T12:58:35;35.27;;;14.73;;
69334;SDS011;56477;52.742;15.242;2024-02-15T13:01:01;28.02;;;12.40;;
69334;SDS011;56477;52.742;15.242;2024-02-15T13:03:29;22.08;;;9.13;;
69334;SDS011;56477;52.742;15.242;2024-02-15T13:05:56;27.35;;;13.40;;
69334;SDS011;56477;52.742;15.242;2024-02-15T13:08:23;24.77;;;11.50;;
69334;SDS011;56477;52.742;15.242;2024-02-15T13:10:48;29.63;;;13.20;;
69334;SDS011;56477;52.742;15.242;2024-02-15T13:13:15;33.25;;;13.85;;
69334;SDS011;56477;52.742;15.242;2024-02-15T13:15:42;35.70;;;15.73;;
69334;SDS011;56477;52.742;15.242;2024-02-15T13:18:09;35.83;;;16.30;;
69334;SDS011;56477;52.742;15.242;2024-02-15T13:20:36;42.30;;;16.70;;
69334;SDS011;56477;52.742;15.242;2024-02-15T13:23:04;38.88;;;16.08;;
69334;SDS011;56477;52.742;15.242;2024-02-15T13:25:37;36.58;;;14.80;;
69334;SDS011;56477;52.742;15.242;2024-02-15T13:28:05;51.30;;;18.33;;
69334;SDS011;56477;52.742;15.242;2024-02-15T13:30:31;31.93;;;14.70;;
69334;SDS011;56477;52.742;15.242;2024-02-15T13:32:58;34.35;;;14.45;;
69334;SDS011;56477;52.742;15.242;2024-02-15T13:35:24;23.80;;;10.70;;
69334;SDS011;56477;52.742;15.242;2024-02-15T13:37:51;33.25;;;15.63;;
69334;SDS011;56477;52.742;15.242;2024-02-15T13:40:22;38.08;;;15.73;;
69334;SDS011;56477;52.742;15.242;2024-02-15T13:42:52;31.63;;;13.23;;
69334;SDS011;56477;52.742;15.242;2024-02-15T13:47:59;35.03;;;15.57;;
69334;SDS011;56477;52.742;15.242;2024-02-15T13:50:28;41.67;;;17.30;;
69334;SDS011;56477;52.742;15.242;2024-02-15T13:52:58;20.92;;;9.13;;
69334;SDS011;56477;52.742;15.242;2024-02-15T13:55:24;33.00;;;14.57;;
69334;SDS011;56477;52.742;15.242;2024-02-15T13:57:55;33.88;;;14.93;;
69334;SDS011;56477;52.742;15.242;2024-02-15T14:00:22;20.73;;;8.30;;
69334;SDS011;56477;52.742;15.242;2024-02-15T14:02:52;35.60;;;15.20;;
69334;SDS011;56477;52.742;15.242;2024-02-15T14:05:20;19.40;;;7.82;;
69334;SDS011;56477;52.742;15.242;2024-02-15T14:07:49;39.17;;;14.53;;
69334;SDS011;56477;52.742;15.242;2024-02-15T14:10:19;55.55;;;11.60;;
69334;SDS011;56477;52.742;15.242;2024-02-15T14:12:50;76.38;;;13.63;;
69334;SDS011;56477;52.742;15.242;2024-02-15T14:15:29;170.73;;;18.27;;
69334;SDS011;56477;52.742;15.242;2024-02-15T14:17:56;218.48;;;22.13;;
69334;SDS011;56477;52.742;15.242;2024-02-15T14:20:22;94.00;;;15.47;;
69334;SDS011;56477;52.742;15.242;2024-02-15T14:22:49;34.78;;;10.15;;
69334;SDS011;56477;52.742;15.242;2024-02-15T14:25:24;271.60;;;22.30;;
69334;SDS011;56477;52.742;15.242;2024-02-15T14:27:57;252.98;;;23.13;;
69334;SDS011;56477;52.742;15.242;2024-02-15T14:30:26;32.53;;;13.25;;
69334;SDS011;56477;52.742;15.242;2024-02-15T14:33:11;24.93;;;10.60;;
69334;SDS011;56477;52.742;15.242;2024-02-15T14:35:41;30.00;;;12.80;;
69334;SDS011;56477;52.742;15.242;2024-02-15T14:38:09;29.80;;;12.45;;
69334;SDS011;56477;52.742;15.242;2024-02-15T14:40:42;28.88;;;13.07;;
69334;SDS011;56477;52.742;15.242;2024-02-15T14:43:11;35.92;;;13.60;;
69334;SDS011;56477;52.742;15.242;2024-02-15T14:45:41;33.07;;;13.80;;